sensor_id;sensor_type;location;lat;lon;timestamp;pressure;altitude;pressure_sealevel;temperature;humidity
60246;BME280;46107;53.356;-1.524;2023-05-07T00:00:06;98620.53;;;15.94;64.75
60246;BME280;46107;53.356;-1.524;2023-05-07T00:02:33;98623.53;;;15.96;64.99
60246;BME280;46107;53.356;-1.524;2023-05-07T00:05:01;98621.91;;;15.74;65.51
60246;BME280;46107;53.356;-1.524;2023-05-07T00:07:29;98619.58;;;15.63;65.49
60246;BME280;46107;53.356;-1.524;2023-05-07T00:09:57;98618.72;;;15.74;64.91
60246;BME280;46107;53.356;-1.524;2023-05-07T00:12:24;98612.51;;;16.00;64.59
60246;BME280;46107;53.356;-1.524;2023-05-07T00:14:51;98620.41;;;15.39;66.07
60246;BME280;46107;53.356;-1.524;2023-05-07T00:17:19;98621.10;;;15.60;65.68
60246;BME280;46107;53.356;-1.524;2023-05-07T00:19:46;98623.28;;;15.34;66.56
60246;BME280;46107;53.356;-1.524;2023-05-07T00:22:14;98624.05;;;15.38;65.70
60246;BME280;46107;53.356;-1.524;2023-05-07T00:24:42;98623.72;;;15.40;65.51
60246;BME280;46107;53.356;-1.524;2023-05-07T00:27:09;98624.57;;;15.71;65.38
60246;BME280;46107;53.356;-1.524;2023-05-07T00:29:36;98622.05;;;15.87;64.17
60246;BME280;46107;53.356;-1.524;2023-05-07T00:32:05;98624.44;;;16.24;63.66
60246;BME280;46107;53.356;-1.524;2023-05-07T00:34:32;98627.54;;;15.77;65.24
60246;BME280;46107;53.356;-1.524;2023-05-07T00:37:01;98632.10;;;15.54;67.28
60246;BME280;46107;53.356;-1.524;2023-05-07T00:39:28;98628.76;;;15.55;65.94
60246;BME280;46107;53.356;-1.524;2023-05-07T00:41:56;98627.83;;;15.60;65.59
60246;BME280;46107;53.356;-1.524;2023-05-07T00:44:24;98634.01;;;15.24;66.15
60246;BME280;46107;53.356;-1.524;2023-05-07T00:46:52;98629.11;;;15.90;65.33
60246;BME280;46107;53.356;-1.524;2023-05-07T00:49:20;98629.72;;;15.82;64.93
60246;BME280;46107;53.356;-1.524;2023-05-07T00:51:48;98631.01;;;16.41;64.15
60246;BME280;46107;53.356;-1.524;2023-05-07T00:54:16;98630.51;;;15.68;64.60
60246;BME280;46107;53.356;-1.524;2023-05-07T00:56:44;98632.51;;;15.86;63.72
60246;BME280;46107;53.356;-1.524;2023-05-07T00:59:12;98631.06;;;15.95;63.55
60246;BME280;46107;53.356;-1.524;2023-05-07T01:01:40;98625.37;;;15.89;63.13
60246;BME280;46107;53.356;-1.524;2023-05-07T01:04:07;98626.27;;;15.28;64.42
60246;BME280;46107;53.356;-1.524;2023-05-07T01:06:35;98624.50;;;15.74;63.80
60246;BME280;46107;53.356;-1.524;2023-05-07T01:09:03;98629.30;;;15.70;62.97
60246;BME280;46107;53.356;-1.524;2023-05-07T01:11:32;98627.39;;;16.13;62.11
60246;BME280;46107;53.356;-1.524;2023-05-07T01:14:00;98624.16;;;16.29;61.38
60246;BME280;46107;53.356;-1.524;2023-05-07T01:16:28;98622.16;;;16.03;61.47
60246;BME280;46107;53.356;-1.524;2023-05-07T01:18:56;98621.16;;;15.82;61.90
60246;BME280;46107;53.356;-1.524;2023-05-07T01:21:33;98621.98;;;16.00;62.12
60246;BME280;46107;53.356;-1.524;2023-05-07T01:24:01;98619.87;;;16.14;61.86
60246;BME280;46107;53.356;-1.524;2023-05-07T01:26:28;98623.39;;;15.93;61.47
60246;BME280;46107;53.356;-1.524;2023-05-07T01:28:56;98624.64;;;16.43;61.46
60246;BME280;46107;53.356;-1.524;2023-05-07T01:31:24;98623.40;;;16.15;61.34
60246;BME280;46107;53.356;-1.524;2023-05-07T01:33:53;98623.48;;;16.11;61.54
60246;BME280;46107;53.356;-1.524;2023-05-07T01:36:22;98622.30;;;16.08;61.04
60246;BME280;46107;53.356;-1.524;2023-05-07T01:38:50;98623.40;;;15.91;61.56
60246;BME280;46107;53.356;-1.524;2023-05-07T01:41:18;98622.96;;;15.98;61.32
60246;BME280;46107;53.356;-1.524;2023-05-07T01:43:48;98622.75;;;15.76;61.08
60246;BME280;46107;53.356;-1.524;2023-05-07T01:46:18;98625.05;;;16.53;61.06
60246;BME280;46107;53.356;-1.524;2023-05-07T01:48:46;98626.11;;;16.19;61.37
60246;BME280;46107;53.356;-1.524;2023-05-07T01:51:14;98629.55;;;15.96;61.32
60246;BME280;46107;53.356;-1.524;2023-05-07T01:53:41;98631.12;;;16.08;61.29
60246;BME280;46107;53.356;-1.524;2023-05-07T01:56:10;98638.16;;;16.17;62.33
60246;BME280;46107;53.356;-1.524;2023-05-07T01:58:37;98637.61;;;15.91;61.71
60246;BME280;46107;53.356;-1.524;2023-05-07T02:01:05;98635.67;;;16.41;61.63
60246;BME280;46107;53.356;-1.524;2023-05-07T02:03:33;98637.98;;;16.09;61.68
60246;BME280;46107;53.356;-1.524;2023-05-07T02:06:00;98636.88;;;16.27;61.21
60246;BME280;46107;53.356;-1.524;2023-05-07T02:08:27;98643.53;;;15.83;62.72
60246;BME280;46107;53.356;-1.524;2023-05-07T02:10:55;98646.66;;;16.13;61.77
60246;BME280;46107;53.356;-1.524;2023-05-07T02:13:22;98648.33;;;16.00;61.94
60246;BME280;46107;53.356;-1.524;2023-05-07T02:15:50;98647.24;;;15.81;62.51
60246;BME280;46107;53.356;-1.524;2023-05-07T02:18:17;98652.28;;;15.98;62.14
60246;BME280;46107;53.356;-1.524;2023-05-07T02:20:44;98654.30;;;15.90;62.35
60246;BME280;46107;53.356;-1.524;2023-05-07T02:23:12;98656.10;;;15.40;63.08
60246;BME280;46107;53.356;-1.524;2023-05-07T02:25:40;98656.73;;;15.60;63.70
60246;BME280;46107;53.356;-1.524;2023-05-07T02:28:07;98660.72;;;15.62;63.34
60246;BME280;46107;53.356;-1.524;2023-05-07T02:30:35;98665.03;;;15.61;62.95
60246;BME280;46107;53.356;-1.524;2023-05-07T02:33:02;98664.26;;;15.83;63.04
60246;BME280;46107;53.356;-1.524;2023-05-07T02:35:30;98665.06;;;15.93;62.50
60246;BME280;46107;53.356;-1.524;2023-05-07T02:37:57;98668.67;;;15.90;62.66
60246;BME280;46107;53.356;-1.524;2023-05-07T02:40:25;98669.58;;;15.78;63.06
60246;BME280;46107;53.356;-1.524;2023-05-07T02:42:53;98675.77;;;15.89;62.75
60246;BME280;46107;53.356;-1.524;2023-05-07T02:45:21;98678.66;;;15.92;62.81
60246;BME280;46107;53.356;-1.524;2023-05-07T02:47:48;98682.29;;;15.73;63.25
60246;BME280;46107;53.356;-1.524;2023-05-07T02:50:16;98684.57;;;15.72;63.31
60246;BME280;46107;53.356;-1.524;2023-05-07T02:52:44;98688.42;;;15.89;62.73
60246;BME280;46107;53.356;-1.524;2023-05-07T02:55:11;98689.76;;;15.72;62.90
60246;BME280;46107;53.356;-1.524;2023-05-07T02:57:39;98691.08;;;15.83;62.81
60246;BME280;46107;53.356;-1.524;2023-05-07T03:00:16;98694.23;;;15.69;63.39
60246;BME280;46107;53.356;-1.524;2023-05-07T03:02:44;98692.49;;;16.03;62.24
60246;BME280;46107;53.356;-1.524;2023-05-07T03:05:12;98691.60;;;16.02;62.27
60246;BME280;46107;53.356;-1.524;2023-05-07T03:07:39;98693.08;;;15.97;62.31
60246;BME280;46107;53.356;-1.524;2023-05-07T03:10:07;98693.36;;;16.01;62.26
60246;BME280;46107;53.356;-1.524;2023-05-07T03:12:35;98700.09;;;15.67;62.82
60246;BME280;46107;53.356;-1.524;2023-05-07T03:15:03;98693.48;;;16.06;61.88
60246;BME280;46107;53.356;-1.524;2023-05-07T03:17:32;98696.31;;;15.99;62.09
60246;BME280;46107;53.356;-1.524;2023-05-07T03:20:00;98698.78;;;15.90;62.18
60246;BME280;46107;53.356;-1.524;2023-05-07T03:22:27;98702.22;;;16.11;61.65
60246;BME280;46107;53.356;-1.524;2023-05-07T03:24:54;98706.86;;;15.71;61.83
60246;BME280;46107;53.356;-1.524;2023-05-07T03:27:22;98708.78;;;15.51;62.70
60246;BME280;46107;53.356;-1.524;2023-05-07T03:29:49;98703.27;;;15.92;62.33
60246;BME280;46107;53.356;-1.524;2023-05-07T03:32:17;98705.12;;;15.85;62.55
60246;BME280;46107;53.356;-1.524;2023-05-07T03:34:44;98701.40;;;15.95;62.18
60246;BME280;46107;53.356;-1.524;2023-05-07T03:37:12;98702.84;;;15.83;62.41
60246;BME280;46107;53.356;-1.524;2023-05-07T03:39:40;98702.27;;;16.01;62.03
60246;BME280;46107;53.356;-1.524;2023-05-07T03:42:08;98700.86;;;15.85;61.94
60246;BME280;46107;53.356;-1.524;2023-05-07T03:44:36;98704.74;;;15.62;62.17
60246;BME280;46107;53.356;-1.524;2023-05-07T03:47:04;98706.89;;;15.35;62.84
60246;BME280;46107;53.356;-1.524;2023-05-07T03:49:31;98708.91;;;15.77;63.02
60246;BME280;46107;53.356;-1.524;2023-05-07T03:51:59;98711.72;;;15.55;63.01
60246;BME280;46107;53.356;-1.524;2023-05-07T03:54:27;98710.42;;;15.51;62.84
60246;BME280;46107;53.356;-1.524;2023-05-07T03:56:55;98711.01;;;15.15;63.48
60246;BME280;46107;53.356;-1.524;2023-05-07T03:59:22;98712.11;;;14.70;64.72
60246;BME280;46107;53.356;-1.524;2023-05-07T04:01:50;98712.43;;;15.07;63.41
60246;BME280;46107;53.356;-1.524;2023-05-07T04:04:18;98710.67;;;14.83;64.44
60246;BME280;46107;53.356;-1.524;2023-05-07T04:06:45;98710.66;;;15.29;64.01
60246;BME280;46107;53.356;-1.524;2023-05-07T04:09:13;98709.82;;;15.11;63.30
60246;BME280;46107;53.356;-1.524;2023-05-07T04:11:42;98707.16;;;15.84;62.50
60246;BME280;46107;53.356;-1.524;2023-05-07T04:14:10;98710.70;;;15.39;62.65
60246;BME280;46107;53.356;-1.524;2023-05-07T04:16:37;98713.41;;;15.20;62.84
60246;BME280;46107;53.356;-1.524;2023-05-07T04:19:05;98713.92;;;14.94;63.94
60246;BME280;46107;53.356;-1.524;2023-05-07T04:21:33;98716.23;;;15.29;62.88
60246;BME280;46107;53.356;-1.524;2023-05-07T04:24:02;98714.53;;;14.97;63.14
60246;BME280;46107;53.356;-1.524;2023-05-07T04:26:30;98714.39;;;14.96;63.99
60246;BME280;46107;53.356;-1.524;2023-05-07T04:28:58;98715.71;;;14.24;64.49
60246;BME280;46107;53.356;-1.524;2023-05-07T04:31:26;98717.94;;;13.43;69.15
60246;BME280;46107;53.356;-1.524;2023-05-07T04:33:54;98716.57;;;12.96;70.54
60246;BME280;46107;53.356;-1.524;2023-05-07T04:36:21;98714.77;;;13.12;71.74
60246;BME280;46107;53.356;-1.524;2023-05-07T04:38:49;98711.97;;;13.72;68.72
60246;BME280;46107;53.356;-1.524;2023-05-07T04:41:17;98714.19;;;13.63;69.95
60246;BME280;46107;53.356;-1.524;2023-05-07T04:43:45;98712.85;;;14.13;68.47
60246;BME280;46107;53.356;-1.524;2023-05-07T04:46:12;98719.26;;;13.53;69.86
60246;BME280;46107;53.356;-1.524;2023-05-07T04:48:40;98721.01;;;13.20;71.38
60246;BME280;46107;53.356;-1.524;2023-05-07T04:51:07;98718.77;;;13.89;68.69
60246;BME280;46107;53.356;-1.524;2023-05-07T04:53:34;98719.40;;;12.71;73.85
60246;BME280;46107;53.356;-1.524;2023-05-07T04:56:02;98717.02;;;13.09;71.65
60246;BME280;46107;53.356;-1.524;2023-05-07T04:58:39;98719.78;;;12.94;71.75
60246;BME280;46107;53.356;-1.524;2023-05-07T05:01:07;98719.33;;;12.70;73.54
60246;BME280;46107;53.356;-1.524;2023-05-07T05:03:35;98722.48;;;12.04;76.44
60246;BME280;46107;53.356;-1.524;2023-05-07T05:06:03;98724.20;;;12.11;76.68
60246;BME280;46107;53.356;-1.524;2023-05-07T05:08:30;98725.11;;;12.27;76.22
60246;BME280;46107;53.356;-1.524;2023-05-07T05:10:58;98727.52;;;13.25;73.58
60246;BME280;46107;53.356;-1.524;2023-05-07T05:13:25;98723.63;;;13.00;73.44
60246;BME280;46107;53.356;-1.524;2023-05-07T05:15:53;98725.07;;;12.15;76.94
60246;BME280;46107;53.356;-1.524;2023-05-07T05:18:21;98724.83;;;13.85;72.37
60246;BME280;46107;53.356;-1.524;2023-05-07T05:20:48;98724.22;;;14.04;71.22
60246;BME280;46107;53.356;-1.524;2023-05-07T05:23:15;98729.35;;;13.99;70.28
60246;BME280;46107;53.356;-1.524;2023-05-07T05:25:43;98732.31;;;14.37;69.55
60246;BME280;46107;53.356;-1.524;2023-05-07T05:28:10;98733.18;;;14.67;69.70
60246;BME280;46107;53.356;-1.524;2023-05-07T05:30:38;98736.99;;;14.61;68.61
60246;BME280;46107;53.356;-1.524;2023-05-07T05:33:06;98740.97;;;14.62;68.06
60246;BME280;46107;53.356;-1.524;2023-05-07T05:35:34;98744.81;;;14.32;68.80
60246;BME280;46107;53.356;-1.524;2023-05-07T05:38:02;98747.55;;;14.34;67.49
60246;BME280;46107;53.356;-1.524;2023-05-07T05:40:30;98757.21;;;15.19;66.48
60246;BME280;46107;53.356;-1.524;2023-05-07T05:42:57;98759.26;;;14.73;65.56
60246;BME280;46107;53.356;-1.524;2023-05-07T05:45:25;98762.46;;;15.65;65.17
60246;BME280;46107;53.356;-1.524;2023-05-07T05:47:52;98763.72;;;14.02;66.50
60246;BME280;46107;53.356;-1.524;2023-05-07T05:50:20;98764.18;;;14.99;67.13
60246;BME280;46107;53.356;-1.524;2023-05-07T05:52:47;98762.85;;;14.74;67.67
60246;BME280;46107;53.356;-1.524;2023-05-07T05:55:15;98768.56;;;13.80;69.36
60246;BME280;46107;53.356;-1.524;2023-05-07T05:57:43;98768.31;;;14.19;70.06
60246;BME280;46107;53.356;-1.524;2023-05-07T06:00:11;98773.58;;;13.53;70.80
60246;BME280;46107;53.356;-1.524;2023-05-07T06:02:38;98773.20;;;14.15;70.42
60246;BME280;46107;53.356;-1.524;2023-05-07T06:05:07;98766.48;;;14.72;69.04
60246;BME280;46107;53.356;-1.524;2023-05-07T06:07:34;98774.53;;;14.00;71.46
60246;BME280;46107;53.356;-1.524;2023-05-07T06:10:01;98776.04;;;14.16;68.99
60246;BME280;46107;53.356;-1.524;2023-05-07T06:12:29;98780.84;;;14.15;72.57
60246;BME280;46107;53.356;-1.524;2023-05-07T06:14:57;98790.51;;;13.18;71.95
60246;BME280;46107;53.356;-1.524;2023-05-07T06:17:24;98790.23;;;13.01;74.18
60246;BME280;46107;53.356;-1.524;2023-05-07T06:19:52;98785.83;;;12.87;73.14
60246;BME280;46107;53.356;-1.524;2023-05-07T06:22:20;98787.64;;;13.85;71.48
60246;BME280;46107;53.356;-1.524;2023-05-07T06:24:47;98791.61;;;13.77;71.71
60246;BME280;46107;53.356;-1.524;2023-05-07T06:27:15;98792.11;;;13.52;74.19
60246;BME280;46107;53.356;-1.524;2023-05-07T06:29:43;98786.75;;;14.94;69.53
60246;BME280;46107;53.356;-1.524;2023-05-07T06:32:11;98790.22;;;13.37;73.62
60246;BME280;46107;53.356;-1.524;2023-05-07T06:34:40;98787.41;;;14.12;70.92
60246;BME280;46107;53.356;-1.524;2023-05-07T06:37:08;98791.24;;;13.48;70.50
60246;BME280;46107;53.356;-1.524;2023-05-07T06:39:36;98793.69;;;13.51;75.29
60246;BME280;46107;53.356;-1.524;2023-05-07T06:42:03;98800.26;;;13.28;73.07
60246;BME280;46107;53.356;-1.524;2023-05-07T06:44:31;98798.75;;;14.55;69.47
60246;BME280;46107;53.356;-1.524;2023-05-07T06:46:59;98801.37;;;13.25;70.13
60246;BME280;46107;53.356;-1.524;2023-05-07T06:49:26;98806.05;;;12.47;73.57
60246;BME280;46107;53.356;-1.524;2023-05-07T06:51:54;98804.78;;;14.26;68.95
60246;BME280;46107;53.356;-1.524;2023-05-07T06:54:22;98805.92;;;14.79;69.94
60246;BME280;46107;53.356;-1.524;2023-05-07T06:56:49;98812.17;;;13.56;71.42
60246;BME280;46107;53.356;-1.524;2023-05-07T06:59:17;98816.42;;;13.90;71.41
60246;BME280;46107;53.356;-1.524;2023-05-07T07:01:45;98819.98;;;13.23;73.41
60246;BME280;46107;53.356;-1.524;2023-05-07T07:04:12;98821.34;;;13.47;72.07
60246;BME280;46107;53.356;-1.524;2023-05-07T07:06:39;98826.39;;;13.93;73.55
60246;BME280;46107;53.356;-1.524;2023-05-07T07:09:07;98829.94;;;13.18;73.90
60246;BME280;46107;53.356;-1.524;2023-05-07T07:11:35;98834.58;;;14.49;70.74
60246;BME280;46107;53.356;-1.524;2023-05-07T07:14:03;98834.83;;;13.42;74.50
60246;BME280;46107;53.356;-1.524;2023-05-07T07:16:31;98832.86;;;12.98;75.16
60246;BME280;46107;53.356;-1.524;2023-05-07T07:18:58;98833.01;;;12.90;77.74
60246;BME280;46107;53.356;-1.524;2023-05-07T07:21:27;98839.41;;;13.22;76.29
60246;BME280;46107;53.356;-1.524;2023-05-07T07:23:55;98840.45;;;13.41;75.18
60246;BME280;46107;53.356;-1.524;2023-05-07T07:26:22;98838.95;;;14.71;72.30
60246;BME280;46107;53.356;-1.524;2023-05-07T07:28:50;98835.95;;;14.85;72.82
60246;BME280;46107;53.356;-1.524;2023-05-07T07:31:18;98841.41;;;14.20;72.59
60246;BME280;46107;53.356;-1.524;2023-05-07T07:33:45;98841.52;;;13.51;74.72
60246;BME280;46107;53.356;-1.524;2023-05-07T07:36:14;98839.29;;;14.84;72.36
60246;BME280;46107;53.356;-1.524;2023-05-07T07:38:41;98840.10;;;14.48;71.90
60246;BME280;46107;53.356;-1.524;2023-05-07T07:41:09;98845.61;;;14.49;70.76
60246;BME280;46107;53.356;-1.524;2023-05-07T07:43:37;98851.28;;;13.18;74.75
60246;BME280;46107;53.356;-1.524;2023-05-07T07:46:04;98856.59;;;13.94;70.97
60246;BME280;46107;53.356;-1.524;2023-05-07T07:48:33;98857.69;;;13.69;72.40
60246;BME280;46107;53.356;-1.524;2023-05-07T07:51:01;98862.39;;;14.61;71.70
60246;BME280;46107;53.356;-1.524;2023-05-07T07:53:29;98864.37;;;14.10;72.19
60246;BME280;46107;53.356;-1.524;2023-05-07T07:55:56;98860.26;;;15.37;68.69
60246;BME280;46107;53.356;-1.524;2023-05-07T07:58:24;98855.89;;;15.58;69.50
60246;BME280;46107;53.356;-1.524;2023-05-07T08:00:51;98854.71;;;15.05;68.82
60246;BME280;46107;53.356;-1.524;2023-05-07T08:03:19;98855.60;;;15.06;68.36
60246;BME280;46107;53.356;-1.524;2023-05-07T08:05:47;98856.81;;;14.80;68.92
60246;BME280;46107;53.356;-1.524;2023-05-07T08:08:14;98854.07;;;14.40;67.62
60246;BME280;46107;53.356;-1.524;2023-05-07T08:10:42;98860.42;;;15.44;69.83
60246;BME280;46107;53.356;-1.524;2023-05-07T08:13:09;98857.47;;;14.47;66.30
60246;BME280;46107;53.356;-1.524;2023-05-07T08:15:37;98858.30;;;14.94;67.25
60246;BME280;46107;53.356;-1.524;2023-05-07T08:18:04;98861.69;;;14.21;67.33
60246;BME280;46107;53.356;-1.524;2023-05-07T08:20:37;98863.12;;;15.41;67.30
60246;BME280;46107;53.356;-1.524;2023-05-07T08:23:06;98863.26;;;15.44;64.07
60246;BME280;46107;53.356;-1.524;2023-05-07T08:25:34;98862.06;;;15.11;67.97
60246;BME280;46107;53.356;-1.524;2023-05-07T08:28:01;98868.24;;;15.80;66.05
60246;BME280;46107;53.356;-1.524;2023-05-07T08:30:29;98872.67;;;14.67;66.04
60246;BME280;46107;53.356;-1.524;2023-05-07T08:32:56;98877.80;;;15.94;62.68
60246;BME280;46107;53.356;-1.524;2023-05-07T08:35:23;98881.94;;;15.05;65.99
60246;BME280;46107;53.356;-1.524;2023-05-07T08:37:50;98880.80;;;15.01;68.37
60246;BME280;46107;53.356;-1.524;2023-05-07T08:40:18;98884.32;;;15.46;63.01
60246;BME280;46107;53.356;-1.524;2023-05-07T08:42:49;98882.07;;;15.63;64.12
60246;BME280;46107;53.356;-1.524;2023-05-07T08:45:20;98878.27;;;15.04;64.83
60246;BME280;46107;53.356;-1.524;2023-05-07T08:47:50;98880.99;;;15.45;60.00
60246;BME280;46107;53.356;-1.524;2023-05-07T08:50:20;98885.19;;;15.13;62.99
60246;BME280;46107;53.356;-1.524;2023-05-07T08:52:48;98883.02;;;15.50;63.61
60246;BME280;46107;53.356;-1.524;2023-05-07T08:55:16;98884.95;;;14.16;62.22
60246;BME280;46107;53.356;-1.524;2023-05-07T08:57:44;98886.04;;;15.68;59.45
60246;BME280;46107;53.356;-1.524;2023-05-07T09:00:12;98885.33;;;16.60;60.55
60246;BME280;46107;53.356;-1.524;2023-05-07T09:02:40;98886.82;;;15.74;59.28
60246;BME280;46107;53.356;-1.524;2023-05-07T09:05:08;98889.88;;;16.16;58.55
60246;BME280;46107;53.356;-1.524;2023-05-07T09:07:36;98886.57;;;17.02;58.93
60246;BME280;46107;53.356;-1.524;2023-05-07T09:10:05;98896.58;;;16.48;59.16
60246;BME280;46107;53.356;-1.524;2023-05-07T09:12:33;98899.39;;;15.74;63.60
60246;BME280;46107;53.356;-1.524;2023-05-07T09:15:01;98902.19;;;16.07;60.17
60246;BME280;46107;53.356;-1.524;2023-05-07T09:17:28;98903.16;;;16.38;57.85
60246;BME280;46107;53.356;-1.524;2023-05-07T09:19:56;98904.00;;;16.41;58.78
60246;BME280;46107;53.356;-1.524;2023-05-07T09:22:23;98907.51;;;15.88;61.45
60246;BME280;46107;53.356;-1.524;2023-05-07T09:24:51;98912.69;;;16.50;58.99
60246;BME280;46107;53.356;-1.524;2023-05-07T09:27:18;98909.96;;;15.37;61.12
60246;BME280;46107;53.356;-1.524;2023-05-07T09:29:51;98910.29;;;16.53;55.95
60246;BME280;46107;53.356;-1.524;2023-05-07T09:32:20;98910.96;;;14.92;61.06
60246;BME280;46107;53.356;-1.524;2023-05-07T09:34:48;98912.61;;;15.44;66.14
60246;BME280;46107;53.356;-1.524;2023-05-07T09:37:16;98920.10;;;16.92;60.30
60246;BME280;46107;53.356;-1.524;2023-05-07T09:39:44;98922.35;;;16.40;60.21
60246;BME280;46107;53.356;-1.524;2023-05-07T09:42:12;98925.28;;;16.74;60.46
60246;BME280;46107;53.356;-1.524;2023-05-07T09:44:40;98927.55;;;16.19;57.69
60246;BME280;46107;53.356;-1.524;2023-05-07T09:47:09;98925.31;;;16.08;60.38
60246;BME280;46107;53.356;-1.524;2023-05-07T09:49:39;98927.50;;;15.65;57.80
60246;BME280;46107;53.356;-1.524;2023-05-07T09:52:08;98936.66;;;16.15;57.12
60246;BME280;46107;53.356;-1.524;2023-05-07T09:54:36;98936.35;;;15.18;58.10
60246;BME280;46107;53.356;-1.524;2023-05-07T09:57:05;98938.43;;;16.24;56.89
60246;BME280;46107;53.356;-1.524;2023-05-07T09:59:34;98938.09;;;15.88;57.75
60246;BME280;46107;53.356;-1.524;2023-05-07T10:02:05;98941.56;;;15.88;58.59
60246;BME280;46107;53.356;-1.524;2023-05-07T10:04:37;98943.03;;;16.05;55.37
60246;BME280;46107;53.356;-1.524;2023-05-07T10:07:06;98942.98;;;16.10;57.76
60246;BME280;46107;53.356;-1.524;2023-05-07T10:09:34;98945.95;;;15.75;58.43
60246;BME280;46107;53.356;-1.524;2023-05-07T10:12:04;98948.33;;;16.16;62.75
60246;BME280;46107;53.356;-1.524;2023-05-07T10:14:35;98952.50;;;16.37;58.71
60246;BME280;46107;53.356;-1.524;2023-05-07T10:17:02;98951.18;;;15.60;56.48
60246;BME280;46107;53.356;-1.524;2023-05-07T10:19:31;98954.14;;;16.38;59.97
60246;BME280;46107;53.356;-1.524;2023-05-07T10:22:04;98957.84;;;15.39;60.59
60246;BME280;46107;53.356;-1.524;2023-05-07T10:24:33;98961.29;;;16.17;60.90
60246;BME280;46107;53.356;-1.524;2023-05-07T10:27:02;98959.12;;;16.74;58.25
60246;BME280;46107;53.356;-1.524;2023-05-07T10:29:39;98955.10;;;15.64;56.01
60246;BME280;46107;53.356;-1.524;2023-05-07T10:32:25;98952.59;;;16.14;56.31
60246;BME280;46107;53.356;-1.524;2023-05-07T10:34:59;98962.09;;;16.91;53.50
60246;BME280;46107;53.356;-1.524;2023-05-07T10:37:27;98959.85;;;14.91;56.07
60246;BME280;46107;53.356;-1.524;2023-05-07T10:39:55;98960.72;;;16.82;53.20
60246;BME280;46107;53.356;-1.524;2023-05-07T10:42:24;98961.77;;;16.48;54.80
60246;BME280;46107;53.356;-1.524;2023-05-07T10:44:51;98968.26;;;17.14;54.41
60246;BME280;46107;53.356;-1.524;2023-05-07T10:47:19;98968.12;;;15.94;57.96
60246;BME280;46107;53.356;-1.524;2023-05-07T10:52:17;98976.11;;;16.31;55.44
60246;BME280;46107;53.356;-1.524;2023-05-07T10:54:46;98973.61;;;15.94;55.41
60246;BME280;46107;53.356;-1.524;2023-05-07T10:57:34;98974.19;;;16.75;57.73
60246;BME280;46107;53.356;-1.524;2023-05-07T11:00:02;98973.84;;;16.42;56.16
60246;BME280;46107;53.356;-1.524;2023-05-07T11:03:35;98974.82;;;16.89;54.41
60246;BME280;46107;53.356;-1.524;2023-05-07T11:06:18;98980.27;;;17.18;52.06
60246;BME280;46107;53.356;-1.524;2023-05-07T11:08:54;98983.87;;;16.71;52.49
60246;BME280;46107;53.356;-1.524;2023-05-07T11:11:45;98990.13;;;17.00;56.49
60246;BME280;46107;53.356;-1.524;2023-05-07T11:14:15;98993.52;;;16.46;53.34
60246;BME280;46107;53.356;-1.524;2023-05-07T11:17:10;98991.33;;;16.68;55.19
60246;BME280;46107;53.356;-1.524;2023-05-07T11:19:55;98996.75;;;16.22;55.18
60246;BME280;46107;53.356;-1.524;2023-05-07T11:22:38;98994.86;;;17.46;51.88
60246;BME280;46107;53.356;-1.524;2023-05-07T11:25:07;98996.16;;;15.82;55.74
60246;BME280;46107;53.356;-1.524;2023-05-07T11:27:34;99004.38;;;16.32;52.90
60246;BME280;46107;53.356;-1.524;2023-05-07T11:30:02;99005.93;;;16.64;49.52
60246;BME280;46107;53.356;-1.524;2023-05-07T11:32:31;99010.70;;;15.26;51.10
60246;BME280;46107;53.356;-1.524;2023-05-07T11:35:00;99011.44;;;15.72;53.51
60246;BME280;46107;53.356;-1.524;2023-05-07T11:37:40;99012.17;;;16.73;52.76
60246;BME280;46107;53.356;-1.524;2023-05-07T11:40:09;99008.89;;;16.78;54.76
60246;BME280;46107;53.356;-1.524;2023-05-07T11:42:39;99010.83;;;16.44;53.97
60246;BME280;46107;53.356;-1.524;2023-05-07T11:45:14;99014.05;;;16.11;52.89
60246;BME280;46107;53.356;-1.524;2023-05-07T11:47:50;99002.31;;;17.07;50.64
60246;BME280;46107;53.356;-1.524;2023-05-07T11:50:19;99002.63;;;18.07;50.01
60246;BME280;46107;53.356;-1.524;2023-05-07T11:52:53;99003.72;;;16.46;49.84
60246;BME280;46107;53.356;-1.524;2023-05-07T11:55:21;99003.94;;;15.91;56.68
60246;BME280;46107;53.356;-1.524;2023-05-07T11:57:51;99007.04;;;17.12;48.83
60246;BME280;46107;53.356;-1.524;2023-05-07T12:00:29;99007.10;;;17.30;48.88
60246;BME280;46107;53.356;-1.524;2023-05-07T12:03:04;99003.04;;;17.59;50.53
60246;BME280;46107;53.356;-1.524;2023-05-07T12:05:33;99006.93;;;15.91;55.65
60246;BME280;46107;53.356;-1.524;2023-05-07T12:08:01;99008.83;;;17.59;51.10
60246;BME280;46107;53.356;-1.524;2023-05-07T12:10:29;99009.11;;;17.01;52.90
60246;BME280;46107;53.356;-1.524;2023-05-07T12:12:56;99008.92;;;16.81;47.31
60246;BME280;46107;53.356;-1.524;2023-05-07T12:15:24;99014.91;;;17.04;47.36
60246;BME280;46107;53.356;-1.524;2023-05-07T12:17:53;99009.53;;;17.28;48.66
60246;BME280;46107;53.356;-1.524;2023-05-07T12:20:20;99011.45;;;17.58;49.72
60246;BME280;46107;53.356;-1.524;2023-05-07T12:22:48;99016.57;;;16.83;46.26
60246;BME280;46107;53.356;-1.524;2023-05-07T12:25:19;99023.15;;;16.67;49.12
60246;BME280;46107;53.356;-1.524;2023-05-07T12:27:51;99020.47;;;17.34;46.07
60246;BME280;46107;53.356;-1.524;2023-05-07T12:30:20;99027.44;;;17.82;46.81
60246;BME280;46107;53.356;-1.524;2023-05-07T12:32:52;99019.93;;;16.73;48.61
60246;BME280;46107;53.356;-1.524;2023-05-07T12:35:26;99016.88;;;18.03;46.14
60246;BME280;46107;53.356;-1.524;2023-05-07T12:37:56;99016.28;;;18.11;45.22
60246;BME280;46107;53.356;-1.524;2023-05-07T12:40:38;99017.81;;;17.93;46.56
60246;BME280;46107;53.356;-1.524;2023-05-07T12:43:06;99021.68;;;18.09;43.65
60246;BME280;46107;53.356;-1.524;2023-05-07T12:45:37;99028.94;;;16.63;47.71
60246;BME280;46107;53.356;-1.524;2023-05-07T12:48:06;99019.67;;;17.99;43.85
60246;BME280;46107;53.356;-1.524;2023-05-07T12:50:34;99016.78;;;18.16;43.94
60246;BME280;46107;53.356;-1.524;2023-05-07T12:53:04;99019.86;;;16.80;44.76
60246;BME280;46107;53.356;-1.524;2023-05-07T12:55:32;99022.84;;;17.66;43.91
60246;BME280;46107;53.356;-1.524;2023-05-07T12:58:01;99019.72;;;18.12;42.96
60246;BME280;46107;53.356;-1.524;2023-05-07T13:00:37;99019.31;;;18.08;45.80